sensor_id;sensor_type;location;lat;lon;timestamp;pressure;altitude;pressure_sealevel;temperature;humidity
84932;BME280;75193;53.980;13.902;2023-12-29T00:02:21;100498.63;;;8.77;64.94
84932;BME280;75193;53.980;13.902;2023-12-29T00:04:47;100489.00;;;8.62;65.26
84932;BME280;75193;53.980;13.902;2023-12-29T00:07:12;100494.06;;;8.47;65.71
84932;BME280;75193;53.980;13.902;2023-12-29T00:09:37;100491.94;;;8.38;66.02
84932;BME280;75193;53.980;13.902;2023-12-29T00:12:06;100492.06;;;8.35;65.95
84932;BME280;75193;53.980;13.902;2023-12-29T00:14:32;100479.88;;;8.36;66.12
84932;BME280;75193;53.980;13.902;2023-12-29T00:16:57;100477.97;;;8.22;66.45
84932;BME280;75193;53.980;13.902;2023-12-29T00:19:23;100475.13;;;8.27;66.38
84932;BME280;75193;53.980;13.902;2023-12-29T00:21:48;100455.56;;;8.18;66.54
84932;BME280;75193;53.980;13.902;2023-12-29T00:24:14;100453.88;;;8.17;66.64
84932;BME280;75193;53.980;13.902;2023-12-29T00:26:39;100453.84;;;8.18;66.73
84932;BME280;75193;53.980;13.902;2023-12-29T00:29:04;100453.22;;;8.13;66.81
84932;BME280;75193;53.980;13.902;2023-12-29T00:31:31;100444.78;;;8.08;66.80
84932;BME280;75193;53.980;13.902;2023-12-29T00:33:57;100445.56;;;8.10;66.94
84932;BME280;75193;53.980;13.902;2023-12-29T00:36:22;100450.75;;;8.10;66.95
84932;BME280;75193;53.980;13.902;2023-12-29T00:38:48;100445.78;;;8.06;66.97
84932;BME280;75193;53.980;13.902;2023-12-29T00:41:13;100447.72;;;8.02;67.22
84932;BME280;75193;53.980;13.902;2023-12-29T00:43:39;100442.59;;;8.01;67.41
84932;BME280;75193;53.980;13.902;2023-12-29T00:46:05;100440.03;;;7.99;67.54
84932;BME280;75193;53.980;13.902;2023-12-29T00:48:31;100443.69;;;7.95;67.48
84932;BME280;75193;53.980;13.902;2023-12-29T00:50:56;100445.31;;;7.98;67.68
84932;BME280;75193;53.980;13.902;2023-12-29T00:53:22;100443.78;;;7.94;67.88
84932;BME280;75193;53.980;13.902;2023-12-29T00:55:47;100439.06;;;8.02;67.64
84932;BME280;75193;53.980;13.902;2023-12-29T00:58:13;100433.84;;;8.02;67.56
84932;BME280;75193;53.980;13.902;2023-12-29T01:00:38;100426.66;;;8.07;67.21
84932;BME280;75193;53.980;13.902;2023-12-29T01:03:04;100420.69;;;8.05;67.59
84932;BME280;75193;53.980;13.902;2023-12-29T01:05:29;100418.84;;;8.07;67.57
84932;BME280;75193;53.980;13.902;2023-12-29T01:07:55;100425.25;;;8.17;67.42
84932;BME280;75193;53.980;13.902;2023-12-29T01:10:20;100421.53;;;8.23;67.34
84932;BME280;75193;53.980;13.902;2023-12-29T01:12:46;100418.44;;;8.32;67.12
84932;BME280;75193;53.980;13.902;2023-12-29T01:15:12;100408.13;;;8.30;67.15
84932;BME280;75193;53.980;13.902;2023-12-29T01:17:37;100408.63;;;8.38;66.97
84932;BME280;75193;53.980;13.902;2023-12-29T01:20:03;100406.13;;;8.35;67.20
84932;BME280;75193;53.980;13.902;2023-12-29T01:22:29;100404.47;;;8.34;67.11
84932;BME280;75193;53.980;13.902;2023-12-29T01:24:55;100409.72;;;8.50;66.73
84932;BME280;75193;53.980;13.902;2023-12-29T01:27:21;100410.47;;;8.52;66.78
84932;BME280;75193;53.980;13.902;2023-12-29T01:29:46;100413.47;;;8.62;66.54
84932;BME280;75193;53.980;13.902;2023-12-29T01:32:14;100394.16;;;8.66;66.00
84932;BME280;75193;53.980;13.902;2023-12-29T01:34:39;100390.09;;;8.60;66.19
84932;BME280;75193;53.980;13.902;2023-12-29T01:37:04;100386.03;;;8.55;66.16
84932;BME280;75193;53.980;13.902;2023-12-29T01:39:30;100393.94;;;8.53;66.26
84932;BME280;75193;53.980;13.902;2023-12-29T01:41:56;100377.13;;;8.43;66.54
84932;BME280;75193;53.980;13.902;2023-12-29T01:44:22;100375.53;;;8.40;66.73
84932;BME280;75193;53.980;13.902;2023-12-29T01:46:49;100369.56;;;8.38;66.50
84932;BME280;75193;53.980;13.902;2023-12-29T01:49:16;100373.75;;;8.41;66.49
84932;BME280;75193;53.980;13.902;2023-12-29T01:51:48;100376.13;;;8.45;66.44
84932;BME280;75193;53.980;13.902;2023-12-29T01:54:14;100376.13;;;8.45;66.73
84932;BME280;75193;53.980;13.902;2023-12-29T01:56:40;100386.59;;;8.61;66.45
84932;BME280;75193;53.980;13.902;2023-12-29T01:59:06;100363.91;;;8.63;66.29
84932;BME280;75193;53.980;13.902;2023-12-29T02:01:32;100362.88;;;8.66;66.02
84932;BME280;75193;53.980;13.902;2023-12-29T02:03:57;100357.34;;;8.56;66.22
84932;BME280;75193;53.980;13.902;2023-12-29T02:06:24;100359.25;;;8.53;66.39
84932;BME280;75193;53.980;13.902;2023-12-29T02:08:51;100352.59;;;8.47;66.47
84932;BME280;75193;53.980;13.902;2023-12-29T02:11:17;100344.78;;;8.47;66.60
84932;BME280;75193;53.980;13.902;2023-12-29T02:13:43;100345.16;;;8.57;66.38
84932;BME280;75193;53.980;13.902;2023-12-29T02:16:46;100334.78;;;8.55;66.51
84932;BME280;75193;53.980;13.902;2023-12-29T02:19:41;100331.31;;;8.56;66.02
84932;BME280;75193;53.980;13.902;2023-12-29T02:22:09;100330.59;;;8.53;66.30
84932;BME280;75193;53.980;13.902;2023-12-29T02:24:36;100325.06;;;8.43;66.49
84932;BME280;75193;53.980;13.902;2023-12-29T02:27:11;100317.91;;;8.46;66.40
84932;BME280;75193;53.980;13.902;2023-12-29T02:29:40;100318.06;;;8.43;66.52
84932;BME280;75193;53.980;13.902;2023-12-29T02:32:11;100313.03;;;8.40;66.63
84932;BME280;75193;53.980;13.902;2023-12-29T02:34:40;100335.97;;;8.49;66.60
84932;BME280;75193;53.980;13.902;2023-12-29T02:37:08;100317.41;;;8.40;68.06
84932;BME280;75193;53.980;13.902;2023-12-29T02:39:34;100317.16;;;8.44;68.85
84932;BME280;75193;53.980;13.902;2023-12-29T02:41:59;100327.47;;;8.46;68.47
84932;BME280;75193;53.980;13.902;2023-12-29T02:44:25;100317.50;;;8.54;67.91
84932;BME280;75193;53.980;13.902;2023-12-29T02:46:50;100315.13;;;8.49;67.90
84932;BME280;75193;53.980;13.902;2023-12-29T02:49:16;100307.41;;;8.48;67.84
84932;BME280;75193;53.980;13.902;2023-12-29T02:51:41;100309.53;;;8.57;67.54
84932;BME280;75193;53.980;13.902;2023-12-29T02:54:06;100320.53;;;8.62;67.24
84932;BME280;75193;53.980;13.902;2023-12-29T02:56:33;100310.28;;;8.59;67.18
84932;BME280;75193;53.980;13.902;2023-12-29T02:58:58;100296.66;;;8.70;66.94
84932;BME280;75193;53.980;13.902;2023-12-29T03:01:24;100297.50;;;8.70;67.07
84932;BME280;75193;53.980;13.902;2023-12-29T03:03:49;100283.41;;;8.74;67.40
84932;BME280;75193;53.980;13.902;2023-12-29T03:06:15;100289.78;;;8.85;66.46
84932;BME280;75193;53.980;13.902;2023-12-29T03:08:40;100288.50;;;8.92;66.25
84932;BME280;75193;53.980;13.902;2023-12-29T03:11:06;100274.69;;;8.75;66.60
84932;BME280;75193;53.980;13.902;2023-12-29T03:13:31;100270.22;;;8.93;65.98
84932;BME280;75193;53.980;13.902;2023-12-29T03:15:57;100276.41;;;8.91;66.06
84932;BME280;75193;53.980;13.902;2023-12-29T03:18:22;100269.88;;;8.84;66.40
84932;BME280;75193;53.980;13.902;2023-12-29T03:20:47;100275.00;;;8.85;66.25
84932;BME280;75193;53.980;13.902;2023-12-29T03:23:13;100260.03;;;8.89;66.24
84932;BME280;75193;53.980;13.902;2023-12-29T03:25:38;100263.25;;;8.94;65.83
84932;BME280;75193;53.980;13.902;2023-12-29T03:28:04;100263.47;;;8.89;66.03
84932;BME280;75193;53.980;13.902;2023-12-29T03:30:29;100254.81;;;8.89;66.07
84932;BME280;75193;53.980;13.902;2023-12-29T03:32:54;100252.66;;;8.81;65.98
84932;BME280;75193;53.980;13.902;2023-12-29T03:35:20;100251.47;;;8.87;65.86
84932;BME280;75193;53.980;13.902;2023-12-29T03:37:45;100247.25;;;8.84;65.83
84932;BME280;75193;53.980;13.902;2023-12-29T03:40:11;100245.09;;;8.76;65.88
84932;BME280;75193;53.980;13.902;2023-12-29T03:42:37;100235.91;;;8.85;65.93
84932;BME280;75193;53.980;13.902;2023-12-29T03:45:03;100226.66;;;8.95;65.83
84932;BME280;75193;53.980;13.902;2023-12-29T03:47:29;100222.47;;;8.93;65.60
84932;BME280;75193;53.980;13.902;2023-12-29T03:49:55;100223.22;;;8.95;65.47
84932;BME280;75193;53.980;13.902;2023-12-29T03:52:21;100212.28;;;8.88;65.64
84932;BME280;75193;53.980;13.902;2023-12-29T03:54:46;100204.28;;;8.91;65.75
84932;BME280;75193;53.980;13.902;2023-12-29T03:57:33;100192.47;;;8.70;66.43
84932;BME280;75193;53.980;13.902;2023-12-29T03:59:59;100188.72;;;8.75;65.94
84932;BME280;75193;53.980;13.902;2023-12-29T04:02:24;100200.91;;;8.75;66.21
84932;BME280;75193;53.980;13.902;2023-12-29T04:04:50;100190.38;;;8.76;65.82
84932;BME280;75193;53.980;13.902;2023-12-29T04:07:15;100189.88;;;8.70;66.22
84932;BME280;75193;53.980;13.902;2023-12-29T04:09:40;100198.34;;;8.73;66.09
84932;BME280;75193;53.980;13.902;2023-12-29T04:12:06;100190.88;;;8.67;66.11
84932;BME280;75193;53.980;13.902;2023-12-29T04:14:31;100189.03;;;8.69;66.07
84932;BME280;75193;53.980;13.902;2023-12-29T04:16:57;100177.69;;;8.70;65.90
84932;BME280;75193;53.980;13.902;2023-12-29T04:19:22;100172.66;;;8.67;66.03
84932;BME280;75193;53.980;13.902;2023-12-29T04:21:48;100170.47;;;8.75;66.30
84932;BME280;75193;53.980;13.902;2023-12-29T04:24:13;100165.75;;;8.82;66.06
84932;BME280;75193;53.980;13.902;2023-12-29T04:26:38;100158.53;;;8.71;66.25
84932;BME280;75193;53.980;13.902;2023-12-29T04:29:04;100177.47;;;8.75;66.02
84932;BME280;75193;53.980;13.902;2023-12-29T04:31:29;100166.03;;;8.77;66.18
84932;BME280;75193;53.980;13.902;2023-12-29T04:33:54;100169.31;;;8.65;66.56
84932;BME280;75193;53.980;13.902;2023-12-29T04:36:20;100160.91;;;8.60;66.53
84932;BME280;75193;53.980;13.902;2023-12-29T04:38:45;100165.47;;;8.57;66.78
84932;BME280;75193;53.980;13.902;2023-12-29T04:41:13;100167.63;;;8.64;66.83
84932;BME280;75193;53.980;13.902;2023-12-29T04:43:39;100164.50;;;8.73;66.53
84932;BME280;75193;53.980;13.902;2023-12-29T04:46:05;100147.25;;;8.87;66.31
84932;BME280;75193;53.980;13.902;2023-12-29T04:48:30;100151.53;;;8.88;65.97
84932;BME280;75193;53.980;13.902;2023-12-29T04:50:56;100160.06;;;8.75;66.22
84932;BME280;75193;53.980;13.902;2023-12-29T04:53:21;100164.44;;;8.59;66.73
84932;BME280;75193;53.980;13.902;2023-12-29T04:55:47;100151.50;;;8.58;66.62
84932;BME280;75193;53.980;13.902;2023-12-29T04:58:12;100154.34;;;8.53;66.88
84932;BME280;75193;53.980;13.902;2023-12-29T05:00:37;100137.06;;;8.36;67.49
84932;BME280;75193;53.980;13.902;2023-12-29T05:03:03;100148.63;;;8.31;67.73
84932;BME280;75193;53.980;13.902;2023-12-29T05:05:28;100147.72;;;8.32;67.71
84932;BME280;75193;53.980;13.902;2023-12-29T05:07:54;100142.28;;;8.36;67.69
84932;BME280;75193;53.980;13.902;2023-12-29T05:10:19;100142.75;;;8.27;67.90
84932;BME280;75193;53.980;13.902;2023-12-29T05:12:44;100147.47;;;8.20;68.06
84932;BME280;75193;53.980;13.902;2023-12-29T05:15:10;100129.94;;;8.24;68.13
84932;BME280;75193;53.980;13.902;2023-12-29T05:17:35;100137.06;;;8.20;68.29
84932;BME280;75193;53.980;13.902;2023-12-29T05:20:01;100136.97;;;8.22;68.21
84932;BME280;75193;53.980;13.902;2023-12-29T05:22:26;100144.53;;;8.27;68.42
84932;BME280;75193;53.980;13.902;2023-12-29T05:24:52;100134.41;;;8.38;68.14
84932;BME280;75193;53.980;13.902;2023-12-29T05:27:17;100136.31;;;8.34;68.18
84932;BME280;75193;53.980;13.902;2023-12-29T05:29:43;100130.13;;;8.37;67.85
84932;BME280;75193;53.980;13.902;2023-12-29T05:32:08;100130.59;;;8.43;67.72
84932;BME280;75193;53.980;13.902;2023-12-29T05:34:34;100136.09;;;8.39;67.94
84932;BME280;75193;53.980;13.902;2023-12-29T05:36:59;100124.66;;;8.41;67.79
84932;BME280;75193;53.980;13.902;2023-12-29T05:39:24;100113.88;;;8.47;67.89
84932;BME280;75193;53.980;13.902;2023-12-29T05:41:50;100122.97;;;8.40;68.08
84932;BME280;75193;53.980;13.902;2023-12-29T05:44:15;100116.41;;;8.49;67.80
84932;BME280;75193;53.980;13.902;2023-12-29T05:46:41;100118.16;;;8.48;67.83
84932;BME280;75193;53.980;13.902;2023-12-29T05:49:06;100118.06;;;8.50;67.90
84932;BME280;75193;53.980;13.902;2023-12-29T05:51:31;100103.00;;;8.41;68.10
84932;BME280;75193;53.980;13.902;2023-12-29T05:53:57;100089.78;;;8.44;68.20
84932;BME280;75193;53.980;13.902;2023-12-29T05:56:22;100120.28;;;8.42;68.36
84932;BME280;75193;53.980;13.902;2023-12-29T05:58:47;100112.28;;;8.45;68.54
84932;BME280;75193;53.980;13.902;2023-12-29T06:01:13;100130.44;;;8.46;68.90
84932;BME280;75193;53.980;13.902;2023-12-29T06:03:38;100133.19;;;8.59;69.67
84932;BME280;75193;53.980;13.902;2023-12-29T06:06:04;100142.09;;;8.55;71.45
84932;BME280;75193;53.980;13.902;2023-12-29T06:08:29;100144.56;;;8.42;72.95
84932;BME280;75193;53.980;13.902;2023-12-29T06:10:54;100156.53;;;8.29;73.64
84932;BME280;75193;53.980;13.902;2023-12-29T06:13:20;100145.28;;;8.29;75.13
84932;BME280;75193;53.980;13.902;2023-12-29T06:15:45;100144.13;;;8.18;75.67
84932;BME280;75193;53.980;13.902;2023-12-29T06:18:11;100141.06;;;8.10;76.69
84932;BME280;75193;53.980;13.902;2023-12-29T06:20:36;100136.53;;;7.98;76.88
84932;BME280;75193;53.980;13.902;2023-12-29T06:23:01;100135.09;;;7.93;77.41
84932;BME280;75193;53.980;13.902;2023-12-29T06:25:27;100140.75;;;7.85;77.56
84932;BME280;75193;53.980;13.902;2023-12-29T06:27:53;100141.06;;;7.95;76.97
84932;BME280;75193;53.980;13.902;2023-12-29T06:30:19;100144.41;;;7.97;76.69
84932;BME280;75193;53.980;13.902;2023-12-29T06:32:45;100142.44;;;8.02;76.45
84932;BME280;75193;53.980;13.902;2023-12-29T06:35:11;100140.75;;;8.01;76.35
84932;BME280;75193;53.980;13.902;2023-12-29T06:37:37;100155.66;;;7.97;76.47
84932;BME280;75193;53.980;13.902;2023-12-29T06:40:04;100155.91;;;7.93;76.63
84932;BME280;75193;53.980;13.902;2023-12-29T06:42:30;100167.16;;;7.93;76.51
84932;BME280;75193;53.980;13.902;2023-12-29T06:44:55;100181.53;;;8.00;76.16
84932;BME280;75193;53.980;13.902;2023-12-29T06:47:21;100167.28;;;8.07;76.51
84932;BME280;75193;53.980;13.902;2023-12-29T06:49:46;100168.00;;;7.94;76.53
84932;BME280;75193;53.980;13.902;2023-12-29T06:52:12;100191.59;;;7.90;77.30
84932;BME280;75193;53.980;13.902;2023-12-29T06:54:37;100199.50;;;7.72;78.38
84932;BME280;75193;53.980;13.902;2023-12-29T06:57:02;100189.59;;;7.63;80.58
84932;BME280;75193;53.980;13.902;2023-12-29T06:59:28;100199.88;;;7.48;80.42
84932;BME280;75193;53.980;13.902;2023-12-29T07:01:53;100205.91;;;7.49;80.37
84932;BME280;75193;53.980;13.902;2023-12-29T07:04:19;100170.94;;;7.54;79.58
84932;BME280;75193;53.980;13.902;2023-12-29T07:06:44;100183.44;;;7.48;79.99
84932;BME280;75193;53.980;13.902;2023-12-29T07:09:09;100193.34;;;7.40;79.16
84932;BME280;75193;53.980;13.902;2023-12-29T07:11:35;100195.28;;;7.36;78.15
84932;BME280;75193;53.980;13.902;2023-12-29T07:14:01;100201.69;;;7.46;77.39
84932;BME280;75193;53.980;13.902;2023-12-29T07:16:28;100193.81;;;7.48;76.86
84932;BME280;75193;53.980;13.902;2023-12-29T07:18:53;100179.69;;;7.36;75.96
84932;BME280;75193;53.980;13.902;2023-12-29T07:21:19;100175.78;;;7.45;75.55
84932;BME280;75193;53.980;13.902;2023-12-29T07:23:44;100128.22;;;7.43;75.76
84932;BME280;75193;53.980;13.902;2023-12-29T07:26:10;100163.75;;;7.42;75.55
84932;BME280;75193;53.980;13.902;2023-12-29T07:28:35;100159.44;;;7.25;76.15
84932;BME280;75193;53.980;13.902;2023-12-29T07:31:01;100174.47;;;7.36;75.43
84932;BME280;75193;53.980;13.902;2023-12-29T07:33:26;100179.16;;;7.29;75.68
84932;BME280;75193;53.980;13.902;2023-12-29T07:35:52;100179.16;;;7.29;74.94
84932;BME280;75193;53.980;13.902;2023-12-29T07:38:17;100198.13;;;7.32;74.98
84932;BME280;75193;53.980;13.902;2023-12-29T07:40:43;100204.59;;;7.23;75.69
84932;BME280;75193;53.980;13.902;2023-12-29T07:43:08;100190.06;;;7.36;74.87
84932;BME280;75193;53.980;13.902;2023-12-29T07:45:34;100193.28;;;7.41;74.81
84932;BME280;75193;53.980;13.902;2023-12-29T07:47:59;100183.13;;;7.37;74.97
84932;BME280;75193;53.980;13.902;2023-12-29T07:50:24;100206.66;;;7.34;74.93
84932;BME280;75193;53.980;13.902;2023-12-29T07:52:50;100206.66;;;7.34;74.88
84932;BME280;75193;53.980;13.902;2023-12-29T07:55:15;100212.03;;;7.31;75.09
84932;BME280;75193;53.980;13.902;2023-12-29T07:57:43;100214.88;;;7.26;75.69
84932;BME280;75193;53.980;13.902;2023-12-29T08:00:09;100216.66;;;7.24;75.71
84932;BME280;75193;53.980;13.902;2023-12-29T08:02:35;100209.50;;;7.12;76.26
84932;BME280;75193;53.980;13.902;2023-12-29T08:05:01;100211.47;;;7.24;75.65
84932;BME280;75193;53.980;13.902;2023-12-29T08:07:26;100224.75;;;7.01;76.19
84932;BME280;75193;53.980;13.902;2023-12-29T08:09:52;100217.97;;;7.15;75.63
84932;BME280;75193;53.980;13.902;2023-12-29T08:12:17;100232.06;;;7.28;75.09
84932;BME280;75193;53.980;13.902;2023-12-29T08:14:42;100241.81;;;7.23;75.43
84932;BME280;75193;53.980;13.902;2023-12-29T08:17:08;100236.78;;;7.20;75.65
84932;BME280;75193;53.980;13.902;2023-12-29T08:19:34;100236.19;;;7.33;74.99
84932;BME280;75193;53.980;13.902;2023-12-29T08:21:59;100216.91;;;7.19;75.14
84932;BME280;75193;53.980;13.902;2023-12-29T08:24:24;100229.53;;;7.27;75.05
84932;BME280;75193;53.980;13.902;2023-12-29T08:26:50;100238.09;;;7.29;74.97
84932;BME280;75193;53.980;13.902;2023-12-29T08:29:15;100228.31;;;7.34;74.93
84932;BME280;75193;53.980;13.902;2023-12-29T08:31:42;100230.13;;;7.32;74.85
84932;BME280;75193;53.980;13.902;2023-12-29T08:34:08;100224.94;;;7.49;74.50
84932;BME280;75193;53.980;13.902;2023-12-29T08:36:33;100235.94;;;7.54;74.77
84932;BME280;75193;53.980;13.902;2023-12-29T08:38:59;100241.75;;;7.42;76.56
84932;BME280;75193;53.980;13.902;2023-12-29T08:41:24;100241.69;;;7.44;77.01
84932;BME280;75193;53.980;13.902;2023-12-29T08:43:50;100237.03;;;7.50;76.91
84932;BME280;75193;53.980;13.902;2023-12-29T08:46:15;100234.66;;;7.46;76.56
84932;BME280;75193;53.980;13.902;2023-12-29T08:48:40;100227.06;;;7.41;76.53
84932;BME280;75193;53.980;13.902;2023-12-29T08:51:06;100251.22;;;7.43;76.57
84932;BME280;75193;53.980;13.902;2023-12-29T08:53:32;100245.56;;;7.52;77.47
84932;BME280;75193;53.980;13.902;2023-12-29T08:56:01;100248.19;;;7.52;77.11
84932;BME280;75193;53.980;13.902;2023-12-29T08:58:27;100258.72;;;7.49;77.43
84932;BME280;75193;53.980;13.902;2023-12-29T09:00:52;100251.69;;;7.51;77.02
84932;BME280;75193;53.980;13.902;2023-12-29T09:03:18;100256.06;;;7.51;76.81
84932;BME280;75193;53.980;13.902;2023-12-29T09:05:43;100237.38;;;7.43;76.81
84932;BME280;75193;53.980;13.902;2023-12-29T09:08:08;100258.56;;;7.35;77.19
84932;BME280;75193;53.980;13.902;2023-12-29T09:10:34;100266.22;;;7.38;76.88
84932;BME280;75193;53.980;13.902;2023-12-29T09:12:59;100268.97;;;7.35;77.04
84932;BME280;75193;53.980;13.902;2023-12-29T09:15:25;100272.81;;;7.45;76.85
84932;BME280;75193;53.980;13.902;2023-12-29T09:17:50;100278.63;;;7.50;76.47
84932;BME280;75193;53.980;13.902;2023-12-29T09:20:16;100277.84;;;7.48;76.41
84932;BME280;75193;53.980;13.902;2023-12-29T09:22:42;100274.69;;;7.59;76.59
84932;BME280;75193;53.980;13.902;2023-12-29T09:25:08;100269.81;;;7.70;76.08
84932;BME280;75193;53.980;13.902;2023-12-29T09:27:33;100279.34;;;7.87;75.99
84932;BME280;75193;53.980;13.902;2023-12-29T09:29:58;100269.47;;;7.94;75.66
84932;BME280;75193;53.980;13.902;2023-12-29T09:32:24;100270.38;;;7.93;75.59
84932;BME280;75193;53.980;13.902;2023-12-29T09:34:49;100260.50;;;7.99;75.20
84932;BME280;75193;53.980;13.902;2023-12-29T09:37:14;100262.56;;;8.10;74.82
84932;BME280;75193;53.980;13.902;2023-12-29T09:39:40;100269.94;;;8.17;74.93
84932;BME280;75193;53.980;13.902;2023-12-29T09:42:06;100259.28;;;8.06;75.11
84932;BME280;75193;53.980;13.902;2023-12-29T09:44:35;100266.78;;;7.95;75.67
84932;BME280;75193;53.980;13.902;2023-12-29T09:47:02;100278.84;;;8.13;74.86
84932;BME280;75193;53.980;13.902;2023-12-29T09:49:46;100279.16;;;8.07;75.42
84932;BME280;75193;53.980;13.902;2023-12-29T09:52:13;100281.38;;;7.98;75.99
84932;BME280;75193;53.980;13.902;2023-12-29T09:54:39;100278.13;;;7.94;76.33
84932;BME280;75193;53.980;13.902;2023-12-29T09:57:05;100272.53;;;8.02;76.00
84932;BME280;75193;53.980;13.902;2023-12-29T09:59:38;100277.75;;;8.02;75.82
84932;BME280;75193;53.980;13.902;2023-12-29T10:02:05;100278.28;;;7.91;76.31
84932;BME280;75193;53.980;13.902;2023-12-29T10:04:37;100272.66;;;7.99;75.90
84932;BME280;75193;53.980;13.902;2023-12-29T10:07:04;100265.59;;;7.85;76.51
84932;BME280;75193;53.980;13.902;2023-12-29T10:09:33;100255.28;;;7.99;76.21
84932;BME280;75193;53.980;13.902;2023-12-29T10:12:02;100266.69;;;7.97;76.35
84932;BME280;75193;53.980;13.902;2023-12-29T10:14:47;100258.59;;;8.03;76.29
84932;BME280;75193;53.980;13.902;2023-12-29T10:25:10;100265.91;;;8.12;76.16
84932;BME280;75193;53.980;13.902;2023-12-29T10:27:36;100264.47;;;8.06;76.79
84932;BME280;75193;53.980;13.902;2023-12-29T10:30:01;100255.75;;;8.07;76.74
84932;BME280;75193;53.980;13.902;2023-12-29T10:32:28;100260.91;;;8.25;76.08
84932;BME280;75193;53.980;13.902;2023-12-29T10:35:08;100258.31;;;8.25;75.90
84932;BME280;75193;53.980;13.902;2023-12-29T10:37:34;100259.91;;;8.27;76.00
84932;BME280;75193;53.980;13.902;2023-12-29T10:40:00;100253.84;;;8.27;76.17
84932;BME280;75193;53.980;13.902;2023-12-29T10:42:26;100261.38;;;8.48;75.86
84932;BME280;75193;53.980;13.902;2023-12-29T10:45:09;100263.66;;;8.39;76.40
84932;BME280;75193;53.980;13.902;2023-12-29T10:47:35;100262.25;;;8.32;76.69
84932;BME280;75193;53.980;13.902;2023-12-29T10:50:02;100256.94;;;8.50;76.21
84932;BME280;75193;53.980;13.902;2023-12-29T10:52:32;100256.94;;;8.66;76.07
84932;BME280;75193;53.980;13.902;2023-12-29T10:55:10;100257.69;;;8.84;75.74
84932;BME280;75193;53.980;13.902;2023-12-29T10:57:39;100249.50;;;8.90;75.33
84932;BME280;75193;53.980;13.902;2023-12-29T11:00:05;100252.66;;;8.81;75.48
84932;BME280;75193;53.980;13.902;2023-12-29T11:02:35;100250.78;;;8.83;75.56
84932;BME280;75193;53.980;13.902;2023-12-29T11:05:02;100253.97;;;8.88;75.13
84932;BME280;75193;53.980;13.902;2023-12-29T11:07:40;100245.59;;;8.83;75.17
84932;BME280;75193;53.980;13.902;2023-12-29T11:10:07;100249.50;;;8.90;75.21
84932;BME280;75193;53.980;13.902;2023-12-29T11:12:37;100260.47;;;8.97;75.16
84932;BME280;75193;53.980;13.902;2023-12-29T11:15:05;100245.03;;;9.08;74.64
84932;BME280;75193;53.980;13.902;2023-12-29T11:17:33;100227.22;;;9.16;74.37
84932;BME280;75193;53.980;13.902;2023-12-29T11:20:00;100215.53;;;9.07;74.39
84932;BME280;75193;53.980;13.902;2023-12-29T11:22:30;100232.19;;;9.05;74.19
84932;BME280;75193;53.980;13.902;2023-12-29T11:24:57;100232.00;;;9.08;74.44
84932;BME280;75193;53.980;13.902;2023-12-29T11:27:27;100225.00;;;9.24;73.94
84932;BME280;75193;53.980;13.902;2023-12-29T11:29:55;100208.00;;;9.33;74.13
84932;BME280;75193;53.980;13.902;2023-12-29T11:32:30;100218.41;;;9.33;73.74
84932;BME280;75193;53.980;13.902;2023-12-29T11:35:05;100213.53;;;9.27;73.82
84932;BME280;75193;53.980;13.902;2023-12-29T11:38:03;100220.59;;;9.55;73.18
84932;BME280;75193;53.980;13.902;2023-12-29T11:40:53;100215.84;;;9.61;72.73
84932;BME280;75193;53.980;13.902;2023-12-29T11:43:22;100209.22;;;9.56;71.90
84932;BME280;75193;53.980;13.902;2023-12-29T11:45:47;100221.91;;;9.62;72.10
84932;BME280;75193;53.980;13.902;2023-12-29T11:48:12;100215.53;;;9.37;72.26
84932;BME280;75193;53.980;13.902;2023-12-29T11:50:58;100238.72;;;9.42;72.16
84932;BME280;75193;53.980;13.902;2023-12-29T11:53:32;100215.81;;;9.47;71.87
84932;BME280;75193;53.980;13.902;2023-12-29T11:55:58;100227.72;;;9.37;72.28
84932;BME280;75193;53.980;13.902;2023-12-29T11:58:27;100228.38;;;9.40;71.89
84932;BME280;75193;53.980;13.902;2023-12-29T12:00:53;100225.91;;;9.23;72.27
84932;BME280;75193;53.980;13.902;2023-12-29T12:05:50;100225.63;;;9.14;72.64
84932;BME280;75193;53.980;13.902;2023-12-29T12:08:35;100222.19;;;9.13;73.05
84932;BME280;75193;53.980;13.902;2023-12-29T12:13:55;100223.72;;;8.86;73.56
84932;BME280;75193;53.980;13.902;2023-12-29T12:19:10;100210.31;;;9.07;72.96
84932;BME280;75193;53.980;13.902;2023-12-29T12:21:36;100207.28;;;9.15;72.58
84932;BME280;75193;53.980;13.902;2023-12-29T12:24:06;100206.97;;;9.05;72.08
84932;BME280;75193;53.980;13.902;2023-12-29T12:26:32;100202.00;;;9.01;72.01
84932;BME280;75193;53.980;13.902;2023-12-29T12:28:59;100201.78;;;8.90;72.25
84932;BME280;75193;53.980;13.902;2023-12-29T12:31:25;100199.28;;;8.72;72.49
84932;BME280;75193;53.980;13.902;2023-12-29T12:33:56;100208.53;;;8.62;72.35
84932;BME280;75193;53.980;13.902;2023-12-29T12:36:25;100204.94;;;8.49;73.11
84932;BME280;75193;53.980;13.902;2023-12-29T12:38:53;100214.72;;;8.28;73.24
84932;BME280;75193;53.980;13.902;2023-12-29T12:41:20;100213.78;;;8.29;72.96
84932;BME280;75193;53.980;13.902;2023-12-29T12:43:52;100209.94;;;8.20;72.87
84932;BME280;75193;53.980;13.902;2023-12-29T12:46:22;100223.69;;;8.07;73.01
84932;BME280;75193;53.980;13.902;2023-12-29T12:48:51;100215.72;;;8.10;72.99
84932;BME280;75193;53.980;13.902;2023-12-29T12:52:01;100222.50;;;8.45;72.24
84932;BME280;75193;53.980;13.902;2023-12-29T12:54:28;100224.13;;;8.31;72.41
84932;BME280;75193;53.980;13.902;2023-12-29T12:56:53;100220.41;;;8.03;73.35
84932;BME280;75193;53.980;13.902;2023-12-29T12:59:19;100227.69;;;7.97;73.48
84932;BME280;75193;53.980;13.902;2023-12-29T13:01:45;100226.78;;;7.80;74.31
84932;BME280;75193;53.980;13.902;2023-12-29T13:04:12;100227.78;;;7.78;74.39
84932;BME280;75193;53.980;13.902;2023-12-29T13:06:42;100232.88;;;7.81;74.57